Time;durP1;ratioP1;P1;durP2;ratioP2;P2;SDS_P1;SDS_P2;PMS_P1;PMS_P2;Temp;Humidity;BMP_temperature;BMP_pressure;BME280_temperature;BME280_humidity;BME280_pressure;Samples;Min_cycle;Max_cycle;Signal;HPM_P1;HPM_P2
2023/01/12 00:00:36;;;;;;;;;;;8.20;99.90;;;;;;5024029;28;20408;-71
2023/01/12 00:03:01;;;;;;;;;;;8.30;99.90;;;;;;4990431;28;211789;-71
2023/01/12 00:05:27;;;;;;;;;;;8.40;99.90;;;;;;5052999;28;20425;-72
2023/01/12 00:07:53;;;;;;;;;;;8.40;99.90;;;;;;4996339;28;208431;-72
2023/01/12 00:10:19;;;;;;;;;;;8.40;99.90;;;;;;5034825;28;19929;-73
2023/01/12 00:12:45;;;;;;;;;;;8.40;99.90;;;;;;4998653;28;206688;-72
2023/01/12 00:15:11;;;;;;;;;;;8.30;99.90;;;;;;5007852;28;20486;-72
2023/01/12 00:17:37;;;;;;;;;;;8.30;99.90;;;;;;5002949;28;207292;-72
2023/01/12 00:20:05;;;;;;;;;;;8.20;99.90;;;;;;5037901;28;19920;-72
2023/01/12 00:22:31;;;;;;;;;;;8.20;99.90;;;;;;5015125;28;212895;-71
2023/01/12 00:24:57;;;;;;;;;;;8.20;99.90;;;;;;5019437;28;19925;-72
2023/01/12 00:27:23;;;;;;;;;;;8.20;99.90;;;;;;5038400;28;210917;-72
2023/01/12 00:29:49;;;;;;;;;;;8.20;99.90;;;;;;4994157;28;190714;-71
2023/01/12 00:32:16;;;;;;;;;;;8.20;99.90;;;;;;5051182;28;19928;-71
2023/01/12 00:34:42;;;;;;;;;;;8.20;99.90;;;;;;4972613;28;207986;-71
2023/01/12 00:37:08;;;;;;;;;;;8.20;99.90;;;;;;5050614;28;19928;-70
2023/01/12 00:39:38;;;;;;;;;;;8.10;99.90;;;;;;4966607;28;209618;-70
2023/01/12 00:47:33;;;;;;;;;;;8.10;99.90;;;;;;5003738;28;212767;-70
2023/01/12 00:49:59;;;;;;;;;;;8.10;99.90;;;;;;5042756;28;19920;-70
2023/01/12 00:52:25;;;;;;;;;;;8.10;99.90;;;;;;5037279;28;208451;-71
2023/01/12 00:54:51;;;;;;;;;;;8.20;99.90;;;;;;4982696;28;196443;-71
2023/01/12 00:57:18;;;;;;;;;;;8.20;99.90;;;;;;5039578;28;19925;-73
2023/01/12 00:59:44;;;;;;;;;;;8.20;99.90;;;;;;4980208;28;209637;-72
2023/01/12 01:02:10;;;;;;;;;;;8.20;99.90;;;;;;5037288;28;19920;-72
2023/01/12 01:04:36;;;;;;;;;;;8.20;99.90;;;;;;4963174;28;209092;-71
2023/01/12 01:07:02;;;;;;;;;;;8.10;99.90;;;;;;5041499;28;19927;-70
2023/01/12 01:09:28;;;;;;;;;;;8.20;99.90;;;;;;4987116;28;207306;-70
2023/01/12 01:11:54;;;;;;;;;;;8.20;99.90;;;;;;5037395;28;19921;-70
2023/01/12 01:14:20;;;;;;;;;;;8.10;99.90;;;;;;4982628;28;49404;-69
2023/01/12 01:16:46;;;;;;;;;;;8.10;99.90;;;;;;5058834;28;19928;-69
2023/01/12 01:19:12;;;;;;;;;;;8.10;99.90;;;;;;4974645;28;206767;-71
2023/01/12 01:21:38;;;;;;;;;;;8.20;99.90;;;;;;5057607;28;20014;-71
2023/01/12 01:24:08;;;;;;;;;;;8.20;99.90;;;;;;4975652;28;168553;-71
2023/01/12 01:26:34;;;;;;;;;;;8.20;99.90;;;;;;5038538;28;19928;-70
2023/01/12 01:29:00;;;;;;;;;;;8.30;99.90;;;;;;4999566;28;213621;-70
2023/01/12 01:31:25;;;;;;;;;;;8.30;99.90;;;;;;5033286;28;20010;-72
2023/01/12 01:33:51;;;;;;;;;;;8.30;99.90;;;;;;4991372;28;206810;-71
2023/01/12 01:36:18;;;;;;;;;;;8.30;99.90;;;;;;5050502;28;19932;-70
2023/01/12 01:38:44;;;;;;;;;;;8.30;99.90;;;;;;4983982;28;113846;-71
2023/01/12 01:41:16;;;;;;;;;;;8.20;99.90;;;;;;5044359;28;19928;-71
2023/01/12 01:43:50;;;;;;;;;;;8.20;99.90;;;;;;4980285;28;212987;-72
2023/01/12 01:46:20;;;;;;;;;;;8.20;99.90;;;;;;5027091;28;20356;-71
2023/01/12 01:48:46;;;;;;;;;;;8.20;99.90;;;;;;5005018;28;207143;-71
2023/01/12 01:51:14;;;;;;;;;;;8.20;99.90;;;;;;5042736;28;21235;-69
2023/01/12 01:53:43;;;;;;;;;;;8.20;99.90;;;;;;4988104;28;208254;-70
2023/01/12 01:56:19;;;;;;;;;;;8.30;99.90;;;;;;5052430;28;19929;-71
2023/01/12 01:59:06;;;;;;;;;;;8.30;99.90;;;;;;4994455;28;229022;-71
2023/01/12 02:01:32;;;;;;;;;;;8.30;99.90;;;;;;5055479;28;19935;-71
2023/01/12 02:03:59;;;;;;;;;;;8.30;99.90;;;;;;4978972;28;210345;-70
2023/01/12 02:06:25;;;;;;;;;;;8.30;99.90;;;;;;5028844;28;19920;-70
2023/01/12 02:08:56;;;;;;;;;;;8.30;99.90;;;;;;4990305;28;204134;-70
2023/01/12 02:17:05;;;;;;;;;;;8.50;99.90;;;;;;5037612;28;19933;-70
2023/01/12 02:19:36;;;;;;;;;;;8.50;99.90;;;;;;4977845;28;209938;-69
2023/01/12 02:22:02;;;;;;;;;;;8.40;99.90;;;;;;5051079;28;20409;-70
2023/01/12 02:24:51;;;;;;;;;;;8.40;99.90;;;;;;4944211;28;209745;-69
2023/01/12 02:27:38;;;;;;;;;;;8.40;99.90;;;;;;4998514;28;20323;-71
2023/01/12 02:30:13;;;;;;;;;;;8.40;99.90;;;;;;4922011;28;206961;-70
2023/01/12 02:32:48;;;;;;;;;;;8.40;99.90;;;;;;4954356;28;207672;-71
2023/01/12 02:35:29;;;;;;;;;;;8.40;99.90;;;;;;4997893;28;20395;-70
2023/01/12 02:37:58;;;;;;;;;;;8.40;99.90;;;;;;4961284;28;207587;-71
2023/01/12 02:40:42;;;;;;;;;;;8.40;99.90;;;;;;4993693;28;19929;-72
2023/01/12 02:43:23;;;;;;;;;;;8.40;99.90;;;;;;4965371;28;211380;-72
2023/01/12 02:45:53;;;;;;;;;;;8.40;99.90;;;;;;5019605;28;19929;-73
2023/01/12 02:48:31;;;;;;;;;;;8.30;99.90;;;;;;4963271;28;214155;-73
2023/01/12 02:51:03;;;;;;;;;;;8.30;99.90;;;;;;5017631;28;19929;-74
2023/01/12 02:53:31;;;;;;;;;;;8.30;99.90;;;;;;4954574;28;57225;-73
2023/01/12 02:56:02;;;;;;;;;;;8.30;99.90;;;;;;4997638;28;20274;-73
2023/01/12 02:58:30;;;;;;;;;;;8.30;99.90;;;;;;4960079;28;127139;-73
2023/01/12 03:00:57;;;;;;;;;;;8.30;99.90;;;;;;5005188;28;19951;-72
2023/01/12 03:03:24;;;;;;;;;;;8.30;99.90;;;;;;4918825;28;214528;-74
2023/01/12 03:05:53;;;;;;;;;;;8.40;99.90;;;;;;5005429;28;19920;-72
2023/01/12 03:08:22;;;;;;;;;;;8.40;99.90;;;;;;4983981;28;230993;-72
2023/01/12 03:11:00;;;;;;;;;;;8.40;99.90;;;;;;5036338;28;19929;-73
2023/01/12 03:13:27;;;;;;;;;;;8.40;99.90;;;;;;4986184;28;216668;-73
2023/01/12 03:15:54;;;;;;;;;;;8.40;99.90;;;;;;5035397;28;19933;-72
2023/01/12 03:18:27;;;;;;;;;;;8.40;99.90;;;;;;5001342;28;231638;-74
2023/01/12 03:20:55;;;;;;;;;;;8.40;99.90;;;;;;5068062;28;19927;-74
2023/01/12 03:23:28;;;;;;;;;;;8.40;99.90;;;;;;5013551;28;223644;-73
2023/01/12 03:25:56;;;;;;;;;;;8.40;99.90;;;;;;5053549;28;19925;-74
2023/01/12 03:28:23;;;;;;;;;;;8.50;99.90;;;;;;4988269;28;177688;-73
2023/01/12 03:30:58;;;;;;;;;;;8.50;99.90;;;;;;5046337;28;19928;-74
2023/01/12 03:33:24;;;;;;;;;;;8.50;99.90;;;;;;4986505;28;211361;-75
2023/01/12 03:36:05;;;;;;;;;;;8.50;99.90;;;;;;5042351;28;19925;-73
2023/01/12 03:38:37;;;;;;;;;;;8.60;99.90;;;;;;4970844;28;212247;-73
2023/01/12 03:41:11;;;;;;;;;;;8.60;99.90;;;;;;5045937;28;20414;-74
2023/01/12 03:43:39;;;;;;;;;;;8.60;99.90;;;;;;4988918;28;202438;-74
2023/01/12 03:46:08;;;;;;;;;;;8.60;99.90;;;;;;5042697;28;20398;-73
2023/01/12 03:48:36;;;;;;;;;;;8.60;99.90;;;;;;4972068;28;209146;-74
2023/01/12 03:51:06;;;;;;;;;;;8.60;99.90;;;;;;5018899;28;20408;-74
2023/01/12 03:53:32;;;;;;;;;;;8.60;99.90;;;;;;5001403;28;209474;-74
2023/01/12 03:56:01;;;;;;;;;;;8.60;99.90;;;;;;5050870;28;19924;-75
2023/01/12 03:58:27;;;;;;;;;;;8.60;99.90;;;;;;4993451;28;216291;-73
2023/01/12 04:00:53;;;;;;;;;;;8.60;99.90;;;;;;5048458;28;19921;-74
2023/01/12 04:03:19;;;;;;;;;;;8.60;99.90;;;;;;4985686;28;210028;-73
2023/01/12 04:05:45;;;;;;;;;;;8.60;99.90;;;;;;5030773;28;19954;-74
2023/01/12 04:08:12;;;;;;;;;;;8.60;99.90;;;;;;4991285;28;74327;-73
2023/01/12 04:10:38;;;;;;;;;;;8.60;99.90;;;;;;5034575;28;20325;-73
2023/01/12 04:13:04;;;;;;;;;;;8.50;99.90;;;;;;4999643;28;208088;-73
2023/01/12 04:15:30;;;;;;;;;;;8.50;99.90;;;;;;5039848;28;19935;-73
2023/01/12 04:17:56;;;;;;;;;;;8.50;99.90;;;;;;4999252;28;205825;-73
2023/01/12 04:20:22;;;;;;;;;;;8.50;99.90;;;;;;5027771;28;19944;-74
2023/01/12 04:22:48;;;;;;;;;;;8.60;99.90;;;;;;4998639;28;207326;-74
2023/01/12 04:25:18;;;;;;;;;;;8.60;99.90;;;;;;4997615;28;19921;-72
2023/01/12 04:27:48;;;;;;;;;;;8.50;99.90;;;;;;4990636;28;212301;-73
2023/01/12 04:30:15;;;;;;;;;;;8.60;99.90;;;;;;5021571;28;19920;-73
2023/01/12 04:32:42;;;;;;;;;;;8.60;99.90;;;;;;4994222;28;208254;-73
2023/01/12 04:35:10;;;;;;;;;;;8.60;99.90;;;;;;5011705;28;19917;-74
2023/01/12 04:37:37;;;;;;;;;;;8.60;99.90;;;;;;4985466;28;207051;-72
2023/01/12 04:40:03;;;;;;;;;;;8.50;99.90;;;;;;5026403;28;19929;-73
2023/01/12 04:45:14;;;;;;;;;;;8.40;99.90;;;;;;4994586;28;19924;-73
2023/01/12 04:47:40;;;;;;;;;;;8.40;99.90;;;;;;4985139;28;250920;-70
2023/01/12 04:50:06;;;;;;;;;;;8.40;99.90;;;;;;5023756;28;19929;-72
2023/01/12 04:52:32;;;;;;;;;;;8.40;99.90;;;;;;5002873;28;208812;-70
2023/01/12 04:54:58;;;;;;;;;;;8.40;99.90;;;;;;4989237;28;20011;-73
2023/01/12 04:57:24;;;;;;;;;;;8.30;99.90;;;;;;5035792;28;210648;-71
2023/01/12 04:59:50;;;;;;;;;;;8.30;99.90;;;;;;4978297;28;160534;-72
2023/01/12 05:02:16;;;;;;;;;;;8.30;99.90;;;;;;5048826;28;19924;-71
2023/01/12 05:04:42;;;;;;;;;;;8.30;99.90;;;;;;4957437;28;208040;-72
2023/01/12 05:07:08;;;;;;;;;;;8.30;99.90;;;;;;5055188;28;19956;-71
2023/01/12 05:12:19;;;;;;;;;;;8.20;99.90;;;;;;5054204;28;19943;-72
2023/01/12 05:14:45;;;;;;;;;;;8.20;99.90;;;;;;4964430;28;206890;-71
2023/01/12 05:17:10;;;;;;;;;;;8.20;99.90;;;;;;5035978;28;19955;-72
2023/01/12 05:19:36;;;;;;;;;;;8.20;99.90;;;;;;4975595;28;147459;-72
2023/01/12 05:22:02;;;;;;;;;;;8.20;99.90;;;;;;5049487;28;20221;-72
2023/01/12 05:24:28;;;;;;;;;;;8.20;99.90;;;;;;4967270;28;208884;-70
2023/01/12 05:26:54;;;;;;;;;;;8.10;99.90;;;;;;5056004;28;19966;-70
2023/01/12 05:29:20;;;;;;;;;;;8.10;99.90;;;;;;4991418;28;208022;-72
2023/01/12 05:31:46;;;;;;;;;;;8.10;99.90;;;;;;5047768;28;19982;-71
2023/01/12 05:34:12;;;;;;;;;;;8.10;99.90;;;;;;4974753;28;219043;-71
2023/01/12 05:36:38;;;;;;;;;;;8.10;99.90;;;;;;5058462;28;19925;-72
2023/01/12 05:39:04;;;;;;;;;;;8.10;99.90;;;;;;4976948;28;207642;-71
2023/01/12 05:41:30;;;;;;;;;;;8.10;99.90;;;;;;5045739;28;19920;-71
2023/01/12 05:43:56;;;;;;;;;;;8.10;99.90;;;;;;4998250;28;207927;-73
2023/01/12 05:46:26;;;;;;;;;;;8.10;99.90;;;;;;5038310;28;19921;-73
2023/01/12 05:48:53;;;;;;;;;;;8.10;99.90;;;;;;4985745;28;208759;-72
2023/01/12 05:51:19;;;;;;;;;;;8.10;99.90;;;;;;5049259;28;19928;-73
2023/01/12 05:53:45;;;;;;;;;;;8.10;99.90;;;;;;4980354;28;196427;-72
2023/01/12 05:56:16;;;;;;;;;;;8.10;99.90;;;;;;5053852;28;20017;-71
2023/01/12 05:58:42;;;;;;;;;;;8.10;99.90;;;;;;4995772;28;222433;-72
2023/01/12 06:01:08;;;;;;;;;;;8.10;99.90;;;;;;5026594;28;20386;-71
2023/01/12 06:03:35;;;;;;;;;;;8.10;99.90;;;;;;4968143;28;186823;-72
2023/01/12 06:06:01;;;;;;;;;;;8.20;99.90;;;;;;5042037;28;19925;-71
2023/01/12 06:08:27;;;;;;;;;;;8.20;99.90;;;;;;4999930;28;208382;-72
2023/01/12 06:10:53;;;;;;;;;;;8.20;99.90;;;;;;5051542;28;20297;-72
2023/01/12 06:16:04;;;;;;;;;;;8.30;99.90;;;;;;5025433;28;19925;-71
2023/01/12 06:18:34;;;;;;;;;;;8.30;99.90;;;;;;4981279;28;224440;-70
2023/01/12 06:21:00;;;;;;;;;;;8.30;99.90;;;;;;5036022;28;19950;-70
2023/01/12 06:23:26;;;;;;;;;;;8.40;99.90;;;;;;4974329;28;211877;-69
2023/01/12 06:25:52;;;;;;;;;;;8.30;99.90;;;;;;5031924;28;20014;-69
2023/01/12 06:28:18;;;;;;;;;;;8.40;99.90;;;;;;4994820;28;279906;-70
2023/01/12 06:30:44;;;;;;;;;;;8.40;99.90;;;;;;5045752;28;19924;-71
2023/01/12 06:33:10;;;;;;;;;;;8.50;99.90;;;;;;5000548;28;210718;-71
2023/01/12 06:35:36;;;;;;;;;;;8.50;99.90;;;;;;5026601;28;19928;-72
2023/01/12 06:38:02;;;;;;;;;;;8.50;99.90;;;;;;4991690;28;207217;-71
2023/01/12 06:40:28;;;;;;;;;;;8.60;99.90;;;;;;4995518;28;19932;-70
2023/01/12 06:42:54;;;;;;;;;;;8.60;99.90;;;;;;4986083;28;215422;-70
2023/01/12 06:45:20;;;;;;;;;;;8.60;99.90;;;;;;5037689;28;19929;-71
2023/01/12 06:47:47;;;;;;;;;;;8.70;99.90;;;;;;4959142;28;237380;-72
2023/01/12 06:50:13;;;;;;;;;;;8.70;99.90;;;;;;5008663;28;19935;-72
2023/01/12 06:52:40;;;;;;;;;;;8.70;99.90;;;;;;4980897;28;210851;-73
2023/01/12 06:55:07;;;;;;;;;;;8.80;99.90;;;;;;5024291;28;19924;-72
2023/01/12 06:57:33;;;;;;;;;;;8.70;99.90;;;;;;5006095;28;207073;-72
2023/01/12 06:59:58;;;;;;;;;;;8.80;99.90;;;;;;5026676;28;19924;-72
2023/01/12 07:02:24;;;;;;;;;;;8.80;99.90;;;;;;5030329;28;206825;-72
2023/01/12 07:04:50;;;;;;;;;;;8.80;99.90;;;;;;4990139;28;206595;-72
2023/01/12 07:07:16;;;;;;;;;;;8.90;99.90;;;;;;5056375;28;19924;-71
2023/01/12 07:09:42;;;;;;;;;;;8.90;99.90;;;;;;4976282;28;222600;-71
2023/01/12 07:12:08;;;;;;;;;;;8.90;99.90;;;;;;5050365;28;19925;-72
2023/01/12 07:14:34;;;;;;;;;;;8.90;99.90;;;;;;4976173;28;207083;-72
2023/01/12 07:17:00;;;;;;;;;;;9.00;99.90;;;;;;5054018;28;19929;-72
2023/01/12 07:19:26;;;;;;;;;;;9.00;99.90;;;;;;4979808;28;253547;-71
2023/01/12 07:21:51;;;;;;;;;;;9.00;99.90;;;;;;5047767;28;19940;-72
2023/01/12 07:24:17;;;;;;;;;;;9.10;99.90;;;;;;4978246;28;207490;-72
2023/01/12 07:26:46;;;;;;;;;;;9.10;99.90;;;;;;5048709;28;20058;-72
2023/01/12 07:29:12;;;;;;;;;;;9.10;99.90;;;;;;4986639;28;192075;-72
2023/01/12 07:31:38;;;;;;;;;;;9.10;99.90;;;;;;5050487;28;19961;-71
2023/01/12 07:34:04;;;;;;;;;;;9.10;99.90;;;;;;4980241;28;207756;-72
2023/01/12 07:36:31;;;;;;;;;;;9.10;99.90;;;;;;5044126;28;19933;-72
2023/01/12 07:38:57;;;;;;;;;;;9.20;99.90;;;;;;4992118;28;207613;-72
2023/01/12 07:44:08;;;;;;;;;;;9.30;99.90;;;;;;4961424;28;207251;-71
2023/01/12 07:46:33;;;;;;;;;;;9.30;99.90;;;;;;5049566;28;20553;-71
2023/01/12 07:48:59;;;;;;;;;;;9.30;99.90;;;;;;4982592;28;219634;-71
2023/01/12 07:51:25;;;;;;;;;;;9.40;99.90;;;;;;5023370;28;20527;-72
2023/01/12 07:53:51;;;;;;;;;;;9.50;99.90;;;;;;4992812;28;215917;-71
2023/01/12 07:56:18;;;;;;;;;;;9.50;99.90;;;;;;5052488;28;20485;-71
2023/01/12 07:58:47;;;;;;;;;;;9.60;99.90;;;;;;4982463;28;206287;-71
2023/01/12 08:01:13;;;;;;;;;;;9.60;99.90;;;;;;5039956;28;19921;-71
2023/01/12 08:03:39;;;;;;;;;;;9.70;99.90;;;;;;4991513;28;208099;-71
2023/01/12 08:06:06;;;;;;;;;;;9.80;99.90;;;;;;5048757;28;19920;-72
2023/01/12 08:08:32;;;;;;;;;;;9.80;99.90;;;;;;4971361;28;208118;-71
2023/01/12 08:11:05;;;;;;;;;;;10.00;99.90;;;;;;5030673;28;19932;-71
2023/01/12 08:13:31;;;;;;;;;;;10.00;99.90;;;;;;4981838;28;205133;-73
2023/01/12 08:16:01;;;;;;;;;;;10.00;99.90;;;;;;5026021;28;19921;-73
2023/01/12 08:18:29;;;;;;;;;;;10.00;99.90;;;;;;4979369;28;98252;-73
2023/01/12 08:20:56;;;;;;;;;;;10.10;99.90;;;;;;5031011;28;20271;-74
2023/01/12 08:23:26;;;;;;;;;;;10.20;99.90;;;;;;4991865;28;206824;-71
2023/01/12 08:25:55;;;;;;;;;;;10.20;99.90;;;;;;5029554;28;19924;-71
2023/01/12 08:28:25;;;;;;;;;;;10.20;99.90;;;;;;4992524;28;206503;-71
2023/01/12 08:30:51;;;;;;;;;;;10.20;99.90;;;;;;5023458;28;19928;-71
2023/01/12 08:33:17;;;;;;;;;;;10.30;99.90;;;;;;4993388;28;209776;-71
2023/01/12 08:35:45;;;;;;;;;;;10.30;99.90;;;;;;5031220;28;19936;-71
2023/01/12 08:38:11;;;;;;;;;;;10.30;99.90;;;;;;4996694;28;206687;-72
2023/01/12 08:46:09;;;;;;;;;;;10.30;99.90;;;;;;5040571;28;19932;-72
2023/01/12 08:48:35;;;;;;;;;;;10.30;99.90;;;;;;5001994;28;206820;-73
2023/01/12 08:51:02;;;;;;;;;;;10.30;99.90;;;;;;5027781;28;19928;-72
2023/01/12 08:53:28;;;;;;;;;;;10.30;99.90;;;;;;4997217;28;207195;-71
2023/01/12 08:55:54;;;;;;;;;;;10.40;99.90;;;;;;5022316;28;19932;-72
2023/01/12 08:58:20;;;;;;;;;;;10.40;99.90;;;;;;4989349;28;237817;-72
2023/01/12 09:00:46;;;;;;;;;;;10.40;99.90;;;;;;5031602;28;19929;-73
2023/01/12 09:03:12;;;;;;;;;;;10.40;99.90;;;;;;4976747;28;152618;-72
2023/01/12 09:05:38;;;;;;;;;;;10.40;99.90;;;;;;5025976;28;20055;-71
2023/01/12 09:08:04;;;;;;;;;;;10.50;99.90;;;;;;4994608;28;207610;-72
2023/01/12 09:10:30;;;;;;;;;;;10.50;99.90;;;;;;5038479;28;19928;-72
2023/01/12 09:12:55;;;;;;;;;;;10.50;99.90;;;;;;4993283;28;219763;-71
2023/01/12 09:15:22;;;;;;;;;;;10.50;99.90;;;;;;5026856;28;19928;-71
2023/01/12 09:17:51;;;;;;;;;;;10.60;99.90;;;;;;4998558;28;205027;-72
2023/01/12 09:20:17;;;;;;;;;;;10.50;99.90;;;;;;5024953;28;19924;-70
2023/01/12 09:22:43;;;;;;;;;;;10.60;99.90;;;;;;4993778;28;209172;-73
2023/01/12 09:25:09;;;;;;;;;;;10.50;99.90;;;;;;5040429;28;19928;-71
2023/01/12 09:27:35;;;;;;;;;;;10.60;99.90;;;;;;4986788;28;212137;-73
2023/01/12 09:30:01;;;;;;;;;;;10.60;99.90;;;;;;5000288;28;21671;-73
2023/01/12 09:32:27;;;;;;;;;;;10.60;99.90;;;;;;5017774;28;208120;-70
2023/01/12 09:34:53;;;;;;;;;;;10.70;99.90;;;;;;4970953;28;19925;-71
2023/01/12 09:37:19;;;;;;;;;;;10.60;99.90;;;;;;5056383;28;19951;-72
2023/01/12 09:39:45;;;;;;;;;;;10.70;99.90;;;;;;4967768;28;211557;-69
2023/01/12 09:47:46;;;;;;;;;;;10.70;99.90;;;;;;4969220;28;231283;-71
2023/01/12 09:50:12;;;;;;;;;;;10.70;99.90;;;;;;5022135;28;19973;-70
2023/01/12 09:52:41;;;;;;;;;;;10.70;99.90;;;;;;4993441;28;210961;-71
2023/01/12 09:55:21;;;;;;;;;;;10.70;99.90;;;;;;5031393;28;19951;-70
2023/01/12 09:57:47;;;;;;;;;;;10.80;99.90;;;;;;5006859;28;208811;-71
2023/01/12 10:00:17;;;;;;;;;;;10.70;99.90;;;;;;5016896;28;20192;-71
2023/01/12 10:02:49;;;;;;;;;;;10.70;99.90;;;;;;4993922;28;206581;-72
2023/01/12 10:05:49;;;;;;;;;;;10.70;99.90;;;;;;5046261;28;19920;-71
2023/01/12 10:08:17;;;;;;;;;;;10.80;99.90;;;;;;4939717;28;207116;-71
2023/01/12 10:10:47;;;;;;;;;;;10.80;99.90;;;;;;5030730;28;19937;-71
2023/01/12 10:13:13;;;;;;;;;;;10.90;99.90;;;;;;4993209;28;181439;-70
2023/01/12 10:15:44;;;;;;;;;;;10.90;99.90;;;;;;5047910;28;20748;-71
2023/01/12 10:18:19;;;;;;;;;;;10.90;99.90;;;;;;5008096;28;210401;-70
2023/01/12 10:20:45;;;;;;;;;;;11.00;99.90;;;;;;5054184;28;19927;-71
2023/01/12 10:23:14;;;;;;;;;;;11.00;99.90;;;;;;5003559;28;207007;-71
2023/01/12 10:25:41;;;;;;;;;;;11.00;99.90;;;;;;5050610;28;19924;-70
2023/01/12 10:28:20;;;;;;;;;;;11.10;99.90;;;;;;4986748;28;207479;-71
2023/01/12 10:30:46;;;;;;;;;;;11.00;99.90;;;;;;5038071;28;19920;-71
2023/01/12 10:33:19;;;;;;;;;;;11.10;99.90;;;;;;4991018;28;206462;-70
2023/01/12 10:36:02;;;;;;;;;;;11.10;99.90;;;;;;5024240;28;19924;-71
2023/01/12 10:38:32;;;;;;;;;;;11.20;99.90;;;;;;5004692;28;207263;-70
2023/01/12 10:41:27;;;;;;;;;;;11.20;99.90;;;;;;5052160;28;20507;-71
2023/01/12 10:43:53;;;;;;;;;;;11.20;99.90;;;;;;4968282;28;91144;-71
2023/01/12 10:46:21;;;;;;;;;;;11.30;99.90;;;;;;5028588;28;19928;-71
2023/01/12 10:48:48;;;;;;;;;;;11.30;99.90;;;;;;4978986;28;219970;-71
2023/01/12 10:51:18;;;;;;;;;;;11.30;99.90;;;;;;5052529;28;20290;-71
2023/01/12 10:53:46;;;;;;;;;;;11.30;99.90;;;;;;4990353;28;33884;-70
2023/01/12 10:56:16;;;;;;;;;;;11.30;99.90;;;;;;5047216;28;19935;-71
2023/01/12 10:58:43;;;;;;;;;;;11.40;99.90;;;;;;4986538;28;208365;-72
2023/01/12 11:01:11;;;;;;;;;;;11.40;99.90;;;;;;5031276;28;20433;-69
2023/01/12 11:03:39;;;;;;;;;;;11.40;99.90;;;;;;4991763;28;207560;-70
2023/01/12 11:06:25;;;;;;;;;;;11.40;99.90;;;;;;5031094;28;20608;-70
2023/01/12 11:08:52;;;;;;;;;;;11.40;99.90;;;;;;4981874;28;162684;-69
2023/01/12 11:11:21;;;;;;;;;;;11.40;99.90;;;;;;5046078;28;19924;-69
2023/01/12 11:13:50;;;;;;;;;;;11.40;99.90;;;;;;4987830;28;206840;-69
2023/01/12 11:16:21;;;;;;;;;;;11.50;99.90;;;;;;5049146;28;19924;-70
2023/01/12 11:19:05;;;;;;;;;;;11.40;99.90;;;;;;4985655;28;207412;-70
2023/01/12 11:21:34;;;;;;;;;;;11.50;99.90;;;;;;5049734;28;19925;-69
2023/01/12 11:24:00;;;;;;;;;;;11.50;99.90;;;;;;4981261;28;212727;-69
2023/01/12 11:26:29;;;;;;;;;;;11.50;99.90;;;;;;5035024;28;20527;-70
2023/01/12 11:28:58;;;;;;;;;;;11.50;99.90;;;;;;4980115;28;210655;-68
2023/01/12 11:31:31;;;;;;;;;;;11.60;99.90;;;;;;5045220;28;19929;-68
2023/01/12 11:34:00;;;;;;;;;;;11.60;99.90;;;;;;4995764;28;82991;-69
2023/01/12 11:36:29;;;;;;;;;;;11.60;99.90;;;;;;5047069;28;20386;-69
2023/01/12 11:39:03;;;;;;;;;;;11.60;99.90;;;;;;4988982;28;209129;-69
2023/01/12 11:41:33;;;;;;;;;;;11.70;99.90;;;;;;5027862;28;20014;-69
2023/01/12 11:44:12;;;;;;;;;;;11.60;99.90;;;;;;4985839;28;210408;-69
2023/01/12 11:46:41;;;;;;;;;;;11.70;99.90;;;;;;5047051;28;19924;-69
2023/01/12 11:49:26;;;;;;;;;;;11.70;99.90;;;;;;4980906;28;107996;-70
2023/01/12 11:51:55;;;;;;;;;;;11.70;99.90;;;;;;5055640;28;19935;-70
2023/01/12 11:54:22;;;;;;;;;;;11.70;99.90;;;;;;4981635;28;204728;-71
2023/01/12 11:57:08;;;;;;;;;;;11.60;99.90;;;;;;5055250;28;19924;-70
2023/01/12 11:59:40;;;;;;;;;;;11.60;99.90;;;;;;4982630;28;208428;-71
2023/01/12 12:02:06;;;;;;;;;;;11.60;99.90;;;;;;5041450;28;19920;-71
2023/01/12 12:04:59;;;;;;;;;;;11.60;99.90;;;;;;4949913;28;164895;-71
2023/01/12 12:07:40;;;;;;;;;;;11.60;99.90;;;;;;5021978;28;207048;-72
2023/01/12 12:10:16;;;;;;;;;;;11.60;99.90;;;;;;4956829;28;205832;-70
2023/01/12 12:12:42;;;;;;;;;;;11.50;99.90;;;;;;5000996;28;217485;-69
2023/01/12 12:15:18;;;;;;;;;;;11.50;99.90;;;;;;5041972;28;19971;-70
2023/01/12 12:17:50;;;;;;;;;;;11.50;99.90;;;;;;4991601;28;227523;-69
2023/01/12 12:20:26;;;;;;;;;;;11.50;99.90;;;;;;5045992;28;20614;-70
2023/01/12 12:23:13;;;;;;;;;;;11.50;99.90;;;;;;5003130;28;209366;-69
2023/01/12 12:25:52;;;;;;;;;;;11.50;99.90;;;;;;5034310;28;19924;-71
2023/01/12 12:28:30;;;;;;;;;;;11.40;99.90;;;;;;4996427;28;170424;-71
2023/01/12 12:31:05;;;;;;;;;;;11.40;99.90;;;;;;5043287;28;20027;-71
2023/01/12 12:33:57;;;;;;;;;;;11.40;99.90;;;;;;4984244;28;199441;-72
2023/01/12 12:36:32;;;;;;;;;;;11.30;99.90;;;;;;5038535;28;19928;-70
2023/01/12 12:39:12;;;;;;;;;;;11.30;99.90;;;;;;4988137;28;215389;-70
2023/01/12 12:45:17;;;;;;;;;;;11.20;99.90;;;;;;4987875;28;207166;-69
2023/01/12 12:47:43;;;;;;;;;;;11.20;99.90;;;;;;5010640;28;207322;-69
2023/01/12 12:50:32;;;;;;;;;;;11.20;99.90;;;;;;5039762;28;19952;-70
2023/01/12 12:53:01;;;;;;;;;;;11.20;99.90;;;;;;4911693;28;126323;-70
2023/01/12 12:55:28;;;;;;;;;;;11.20;99.90;;;;;;4957550;28;19926;-71
2023/01/12 12:57:57;;;;;;;;;;;11.20;99.90;;;;;;4913237;28;205941;-70
2023/01/12 13:00:35;;;;;;;;;;;11.20;99.90;;;;;;4968292;28;19926;-70
2023/01/12 13:03:01;;;;;;;;;;;11.20;99.90;;;;;;4913173;28;191049;-70
2023/01/12 13:05:47;;;;;;;;;;;11.20;99.90;;;;;;4950311;28;19925;-69
2023/01/12 13:08:18;;;;;;;;;;;11.10;99.90;;;;;;4920503;28;206223;-71
2023/01/12 13:10:48;;;;;;;;;;;11.10;99.90;;;;;;4958212;28;19922;-70
2023/01/12 13:13:40;;;;;;;;;;;11.10;99.90;;;;;;4908271;28;153354;-71
2023/01/12 13:16:18;;;;;;;;;;;11.10;99.90;;;;;;4969567;28;19930;-71
2023/01/12 13:18:47;;;;;;;;;;;11.10;99.90;;;;;;4938166;28;67291;-72
2023/01/12 13:21:25;;;;;;;;;;;11.20;99.90;;;;;;4976399;28;19933;-71
2023/01/12 13:23:52;;;;;;;;;;;11.20;99.90;;;;;;4925290;28;207264;-71
2023/01/12 13:26:33;;;;;;;;;;;11.20;99.90;;;;;;4955229;28;19922;-70
2023/01/12 13:29:17;;;;;;;;;;;11.30;99.90;;;;;;4907046;28;86080;-71
2023/01/12 13:31:43;;;;;;;;;;;11.20;99.90;;;;;;5056168;28;19929;-71
2023/01/12 13:34:28;;;;;;;;;;;11.30;99.90;;;;;;4989792;28;210580;-70
2023/01/12 13:37:24;;;;;;;;;;;11.30;99.90;;;;;;5059220;28;19920;-70
2023/01/12 13:40:08;;;;;;;;;;;11.30;99.90;;;;;;4924481;28;206245;-72
2023/01/12 13:45:20;;;;;;;;;;;11.30;99.90;;;;;;5006823;28;19936;-70
2023/01/12 13:47:47;;;;;;;;;;;11.30;99.90;;;;;;4954547;28;201387;-72
2023/01/12 13:50:17;;;;;;;;;;;11.30;99.90;;;;;;4975648;28;20205;-70
2023/01/12 13:52:43;;;;;;;;;;;11.30;99.90;;;;;;4962381;28;70899;-71
2023/01/12 13:55:19;;;;;;;;;;;11.30;99.90;;;;;;4971433;28;20491;-70
2023/01/12 13:57:54;;;;;;;;;;;11.30;99.90;;;;;;4938330;28;250952;-71
2023/01/12 14:00:22;;;;;;;;;;;11.30;99.90;;;;;;4989694;28;20675;-69
2023/01/12 14:02:48;;;;;;;;;;;11.30;99.90;;;;;;4940505;28;198497;-71
2023/01/12 14:05:17;;;;;;;;;;;11.30;99.90;;;;;;4985390;28;19940;-70
2023/01/12 14:07:46;;;;;;;;;;;11.30;99.90;;;;;;4933768;28;205960;-70
2023/01/12 14:10:14;;;;;;;;;;;11.30;99.90;;;;;;4995481;28;19999;-69
2023/01/12 14:12:40;;;;;;;;;;;11.30;99.90;;;;;;4934683;28;173158;-70
2023/01/12 14:18:12;;;;;;;;;;;11.20;99.90;;;;;;4991309;28;209119;-70
2023/01/12 14:20:45;;;;;;;;;;;11.30;99.90;;;;;;5020114;28;19928;-69
2023/01/12 14:23:14;;;;;;;;;;;11.30;99.90;;;;;;4960027;28;206729;-69
2023/01/12 14:25:40;;;;;;;;;;;11.20;99.90;;;;;;5004260;28;19928;-69
2023/01/12 14:28:22;;;;;;;;;;;11.20;99.90;;;;;;5001710;28;222552;-72
2023/01/12 14:30:49;;;;;;;;;;;11.20;99.90;;;;;;5042220;28;20413;-69
2023/01/12 14:33:16;;;;;;;;;;;11.10;99.90;;;;;;4977707;28;210208;-67
2023/01/12 14:35:43;;;;;;;;;;;11.10;99.90;;;;;;5036005;28;19933;-69
2023/01/12 14:38:10;;;;;;;;;;;11.10;99.90;;;;;;4988543;28;233992;-69
2023/01/12 14:40:36;;;;;;;;;;;11.00;99.90;;;;;;5011834;28;19929;-69
2023/01/12 14:48:53;;;;;;;;;;;11.00;99.90;;;;;;4959522;28;178388;-69
2023/01/12 14:51:39;;;;;;;;;;;10.90;99.90;;;;;;5036503;28;20594;-69
2023/01/12 14:54:05;;;;;;;;;;;10.90;99.90;;;;;;4991676;28;214200;-68
2023/01/12 14:56:39;;;;;;;;;;;10.80;99.90;;;;;;5046047;28;19982;-70
2023/01/12 14:59:13;;;;;;;;;;;10.80;99.90;;;;;;4997162;28;209838;-69
2023/01/12 15:01:39;;;;;;;;;;;10.80;99.90;;;;;;5049851;28;19928;-72
2023/01/12 15:04:06;;;;;;;;;;;10.80;99.90;;;;;;4975130;28;208642;-70
2023/01/12 15:06:40;;;;;;;;;;;10.70;99.90;;;;;;5035296;28;19947;-70
2023/01/12 15:09:21;;;;;;;;;;;10.70;99.90;;;;;;4971590;28;208498;-72
2023/01/12 15:11:47;;;;;;;;;;;10.70;99.90;;;;;;5048195;28;19921;-71
2023/01/12 15:14:19;;;;;;;;;;;10.70;99.90;;;;;;4974728;28;206828;-70
2023/01/12 15:27:55;;;;;;;;;;;10.70;99.90;;;;;;4964683;28;174492;-71
2023/01/12 15:30:21;;;;;;;;;;;10.70;99.90;;;;;;5019264;28;19934;-73